createdAt,value
2023-02-16T00:01:04.734Z,21.40
2023-02-16T00:03:32.916Z,20.40
2023-02-16T00:06:01.162Z,19.60
2023-02-16T00:08:28.925Z,20.10
2023-02-16T00:11:14.105Z,22.67
2023-02-16T00:13:47.808Z,19.30
2023-02-16T00:16:17.443Z,19.57
2023-02-16T00:18:45.427Z,19.67
2023-02-16T00:21:13.276Z,20.47
2023-02-16T00:23:41.337Z,26.73
2023-02-16T00:26:13.984Z,19.73
2023-02-16T00:28:45.225Z,19.93
2023-02-16T00:31:18.117Z,19.00
2023-02-16T00:33:46.661Z,18.80
2023-02-16T00:36:15.631Z,18.20
2023-02-16T00:38:43.583Z,19.73
2023-02-16T00:41:35.641Z,18.40
2023-02-16T00:44:07.046Z,18.70
2023-02-16T00:46:34.864Z,19.30
2023-02-16T00:49:03.986Z,21.60
2023-02-16T00:51:32.063Z,18.03
2023-02-16T00:53:59.706Z,21.27
2023-02-16T00:56:27.486Z,18.60
2023-02-16T00:58:55.205Z,19.30
2023-02-16T01:01:25.741Z,19.23
2023-02-16T01:03:53.646Z,18.53
2023-02-16T01:06:41.495Z,19.20
2023-02-16T01:09:31.274Z,18.87
2023-02-16T01:11:59.287Z,18.83
2023-02-16T01:14:27.332Z,19.63
2023-02-16T01:16:56.758Z,20.17
2023-02-16T01:19:24.994Z,19.90
2023-02-16T01:21:52.742Z,19.80
2023-02-16T01:24:20.457Z,19.40
2023-02-16T01:26:50.674Z,19.90
2023-02-16T01:29:19.500Z,22.30
2023-02-16T01:31:50.160Z,20.80
2023-02-16T01:34:19.504Z,20.93
2023-02-16T01:36:48.029Z,21.20
2023-02-16T01:39:17.823Z,21.30
2023-02-16T01:41:55.907Z,20.73
2023-02-16T01:44:29.274Z,20.00
2023-02-16T01:47:03.164Z,20.20
2023-02-16T01:49:33.806Z,20.80
2023-02-16T01:52:04.464Z,20.30
2023-02-16T01:54:35.397Z,20.40
2023-02-16T01:57:05.918Z,20.07
2023-02-16T01:59:41.198Z,20.50
2023-02-16T02:02:15.269Z,19.67
2023-02-16T02:05:05.440Z,19.73
2023-02-16T02:07:38.460Z,19.47
2023-02-16T02:10:08.335Z,20.03
2023-02-16T02:12:38.596Z,21.10
2023-02-16T02:15:06.797Z,20.20
2023-02-16T02:17:35.130Z,20.63
2023-02-16T02:20:10.026Z,20.70
2023-02-16T02:23:28.523Z,20.10
2023-02-16T02:26:17.551Z,19.00
2023-02-16T02:28:52.039Z,20.87
2023-02-16T02:31:26.682Z,20.87
2023-02-16T02:33:59.247Z,20.07
2023-02-16T02:36:31.540Z,20.53
2023-02-16T02:39:05.409Z,20.80
2023-02-16T02:41:56.529Z,20.77
2023-02-16T02:44:28.452Z,20.90
2023-02-16T02:46:56.438Z,20.73
2023-02-16T02:49:24.180Z,21.60
2023-02-16T02:51:52.353Z,20.77
2023-02-16T02:54:47.189Z,20.47
2023-02-16T02:57:35.524Z,21.30
2023-02-16T03:00:24.882Z,20.17
2023-02-16T03:02:55.067Z,20.90
2023-02-16T03:05:24.234Z,20.53
2023-02-16T03:07:56.360Z,20.90
2023-02-16T03:10:44.349Z,20.40
2023-02-16T03:13:15.448Z,21.13
2023-02-16T03:15:46.272Z,21.10
2023-02-16T03:18:33.878Z,20.70
2023-02-16T03:21:20.226Z,19.50
2023-02-16T03:24:07.074Z,22.40
2023-02-16T03:26:53.011Z,20.70
2023-02-16T03:29:22.563Z,20.00
2023-02-16T03:31:52.910Z,20.50
2023-02-16T03:34:21.925Z,20.40
2023-02-16T03:36:51.451Z,20.30
2023-02-16T03:39:19.576Z,23.10
2023-02-16T03:41:48.926Z,19.67
2023-02-16T03:44:16.656Z,20.40
2023-02-16T03:46:44.365Z,19.87
2023-02-16T03:49:13.383Z,19.60
2023-02-16T03:51:41.636Z,18.40
2023-02-16T03:54:09.300Z,21.67
2023-02-16T03:56:37.164Z,19.10
2023-02-16T03:59:05.434Z,19.53
2023-02-16T04:01:33.141Z,18.47
2023-02-16T04:04:00.834Z,19.50
2023-02-16T04:06:30.135Z,17.90
2023-02-16T04:08:57.965Z,18.30
2023-02-16T04:11:43.337Z,18.37
2023-02-16T04:14:10.968Z,17.47
2023-02-16T04:16:38.689Z,19.00
2023-02-16T04:19:07.872Z,18.30
2023-02-16T04:21:36.898Z,19.57
2023-02-16T04:24:05.862Z,18.10
2023-02-16T04:26:33.935Z,17.87
2023-02-16T04:29:01.881Z,18.43
2023-02-16T04:31:29.691Z,17.90
2023-02-16T04:33:58.171Z,18.17
2023-02-16T04:36:25.958Z,17.67
2023-02-16T04:38:55.066Z,20.83
2023-02-16T04:41:23.091Z,17.93
2023-02-16T04:43:50.769Z,18.03
2023-02-16T04:46:19.120Z,18.70
2023-02-16T04:48:47.255Z,18.40
2023-02-16T04:51:15.072Z,17.53
2023-02-16T04:53:42.799Z,16.27
2023-02-16T04:56:12.668Z,17.50
2023-02-16T04:58:40.421Z,16.97
2023-02-16T05:01:08.471Z,17.07
2023-02-16T05:03:36.685Z,17.33
2023-02-16T05:06:04.574Z,17.47
2023-02-16T05:08:32.541Z,18.00
2023-02-16T05:11:18.798Z,17.00
2023-02-16T05:14:05.300Z,17.33
2023-02-16T05:16:32.988Z,18.03
2023-02-16T05:19:00.799Z,16.80
2023-02-16T05:21:36.032Z,17.17
2023-02-16T05:24:06.493Z,17.70
2023-02-16T05:26:35.202Z,18.37
2023-02-16T05:29:04.499Z,17.33
2023-02-16T05:31:32.356Z,18.00
2023-02-16T05:34:00.110Z,17.07
2023-02-16T05:36:27.953Z,18.13
2023-02-16T05:38:55.617Z,16.97
2023-02-16T05:41:25.921Z,17.37
2023-02-16T05:43:54.939Z,17.97
2023-02-16T05:46:24.418Z,17.70
2023-02-16T05:48:52.664Z,17.30
2023-02-16T05:51:20.700Z,16.97
2023-02-16T05:53:48.640Z,17.57
2023-02-16T05:56:16.755Z,18.53
2023-02-16T05:58:44.808Z,17.90
2023-02-16T06:01:13.326Z,19.20
2023-02-16T06:04:05.237Z,19.17
2023-02-16T06:06:33.061Z,19.10
2023-02-16T06:09:01.534Z,18.70
2023-02-16T06:11:38.880Z,18.10
2023-02-16T06:14:08.619Z,18.63
2023-02-16T06:16:37.271Z,17.87
2023-02-16T06:19:06.960Z,17.73
2023-02-16T06:21:34.859Z,19.00
2023-02-16T06:24:03.359Z,17.43
2023-02-16T06:26:31.167Z,16.83
2023-02-16T06:28:58.815Z,17.90
2023-02-16T06:31:26.653Z,18.13
2023-02-16T06:33:54.725Z,16.43
2023-02-16T06:36:24.146Z,16.80
2023-02-16T06:38:53.027Z,17.17
2023-02-16T06:41:32.305Z,17.57
2023-02-16T06:44:00.692Z,18.17
2023-02-16T06:46:28.386Z,16.90
2023-02-16T06:48:56.260Z,16.60
2023-02-16T06:51:25.755Z,18.20
2023-02-16T06:53:53.665Z,17.37
2023-02-16T06:56:21.303Z,16.83
2023-02-16T06:58:52.415Z,16.13
2023-02-16T07:01:23.005Z,17.87
2023-02-16T07:03:51.642Z,17.80
2023-02-16T07:06:19.456Z,16.13
2023-02-16T07:08:48.547Z,17.27
2023-02-16T07:11:17.138Z,17.20
2023-02-16T07:13:45.278Z,17.63
2023-02-16T07:16:13.458Z,18.00
2023-02-16T07:18:41.999Z,18.07
2023-02-16T07:21:10.010Z,18.27
2023-02-16T07:23:37.743Z,18.80
2023-02-16T07:26:07.571Z,17.90
2023-02-16T07:28:35.456Z,16.90
2023-02-16T07:31:07.394Z,16.97
2023-02-16T07:33:35.433Z,17.53
2023-02-16T07:36:03.351Z,18.13
2023-02-16T07:38:31.584Z,15.70
2023-02-16T07:41:01.165Z,16.90
2023-02-16T07:43:30.465Z,17.30
2023-02-16T07:45:58.313Z,17.50
2023-02-16T07:48:26.456Z,17.17
2023-02-16T07:50:54.285Z,19.40
2023-02-16T07:53:22.388Z,18.70
2023-02-16T07:55:50.198Z,19.57
2023-02-16T07:58:27.218Z,19.10
2023-02-16T08:00:57.615Z,17.90
2023-02-16T08:03:25.512Z,17.47
2023-02-16T08:05:53.443Z,18.70
2023-02-16T08:08:21.788Z,18.73
2023-02-16T08:10:49.849Z,19.40
2023-02-16T08:13:17.591Z,18.03
2023-02-16T08:15:45.622Z,18.07
2023-02-16T08:18:15.201Z,18.80
2023-02-16T08:21:01.420Z,19.97
2023-02-16T08:23:31.787Z,18.63
2023-02-16T08:25:59.671Z,18.80
2023-02-16T08:28:28.975Z,19.57
2023-02-16T08:30:57.092Z,19.27
2023-02-16T08:33:27.287Z,19.53
2023-02-16T08:35:55.165Z,20.40
2023-02-16T08:38:23.124Z,19.50
2023-02-16T08:40:50.957Z,19.90
2023-02-16T08:43:19.021Z,21.67
2023-02-16T08:45:47.690Z,20.43
2023-02-16T08:48:16.597Z,20.80
2023-02-16T08:50:53.385Z,20.90
2023-02-16T08:53:21.648Z,20.70
2023-02-16T08:55:52.854Z,19.70
2023-02-16T08:58:20.700Z,20.20
2023-02-16T09:00:49.625Z,16.90
2023-02-16T09:03:18.896Z,18.20
2023-02-16T09:05:48.894Z,18.77
2023-02-16T09:08:16.856Z,18.93
2023-02-16T09:10:44.711Z,19.67
2023-02-16T09:13:14.883Z,18.70
2023-02-16T09:15:43.088Z,18.30
2023-02-16T09:18:12.201Z,19.20
2023-02-16T09:20:41.260Z,19.37
2023-02-16T09:23:12.314Z,21.17
2023-02-16T09:25:41.525Z,20.90
2023-02-16T09:28:09.665Z,21.20
2023-02-16T09:30:39.097Z,21.50
2023-02-16T09:33:07.946Z,22.20
2023-02-16T09:35:35.628Z,20.33
2023-02-16T09:38:03.444Z,22.87
2023-02-16T09:40:32.790Z,21.40
2023-02-16T09:43:04.463Z,21.90
2023-02-16T09:45:35.400Z,21.27
2023-02-16T09:48:03.513Z,21.37
2023-02-16T09:50:52.438Z,22.87
2023-02-16T09:53:25.201Z,21.33
2023-02-16T09:55:58.085Z,22.63
2023-02-16T09:58:31.563Z,22.30
2023-02-16T10:01:03.317Z,22.07
2023-02-16T10:03:40.115Z,22.50
2023-02-16T10:06:17.385Z,22.93
2023-02-16T10:08:47.161Z,23.20
2023-02-16T10:11:44.390Z,22.33
2023-02-16T10:14:17.272Z,22.53
2023-02-16T10:16:46.941Z,22.47
2023-02-16T10:19:19.248Z,22.27
2023-02-16T10:21:49.158Z,23.30
2023-02-16T10:24:17.095Z,24.07
2023-02-16T10:26:47.555Z,23.27
2023-02-16T10:29:16.931Z,24.73
2023-02-16T10:31:49.726Z,24.57
2023-02-16T10:34:22.829Z,22.80
2023-02-16T10:37:09.824Z,22.90
2023-02-16T10:39:41.336Z,23.17
2023-02-16T10:42:16.807Z,23.77
2023-02-16T10:44:47.884Z,24.83
2023-02-16T10:47:23.880Z,23.90
2023-02-16T10:49:52.891Z,23.60
2023-02-16T10:52:20.945Z,23.10
2023-02-16T10:54:48.965Z,22.27
2023-02-16T10:57:23.552Z,22.97
2023-02-16T10:59:52.581Z,24.87
2023-02-16T11:02:21.957Z,23.27
2023-02-16T11:04:52.649Z,23.10
2023-02-16T11:07:22.864Z,23.97
2023-02-16T11:09:53.168Z,24.43
2023-02-16T11:12:30.091Z,23.10
2023-02-16T11:15:00.214Z,23.20
2023-02-16T11:17:28.056Z,23.97
2023-02-16T11:19:59.047Z,22.57
2023-02-16T11:22:30.026Z,24.00
2023-02-16T11:24:59.325Z,22.90
2023-02-16T11:27:30.171Z,23.60
2023-02-16T11:30:13.787Z,24.27
2023-02-16T11:32:42.433Z,24.53
2023-02-16T11:35:10.595Z,25.40
2023-02-16T11:38:01.111Z,22.60
2023-02-16T11:40:30.653Z,23.90
2023-02-16T11:43:01.584Z,23.63
2023-02-16T11:45:31.530Z,24.20
2023-02-16T11:48:01.771Z,24.07
2023-02-16T11:50:30.434Z,23.80
2023-02-16T11:52:59.472Z,24.10
2023-02-16T11:55:32.592Z,24.97
2023-02-16T11:58:15.218Z,23.87
2023-02-16T12:00:47.803Z,25.77
2023-02-16T12:03:22.979Z,25.67
2023-02-16T12:06:02.513Z,24.80
2023-02-16T12:08:45.185Z,25.00
2023-02-16T12:11:20.341Z,24.87
2023-02-16T12:13:51.934Z,25.13
2023-02-16T12:16:25.878Z,24.10
2023-02-16T12:19:01.209Z,25.70
2023-02-16T12:21:34.899Z,22.97
2023-02-16T12:24:09.228Z,24.37
2023-02-16T12:26:41.984Z,24.10
2023-02-16T12:29:27.417Z,26.17
2023-02-16T12:32:07.329Z,24.83
2023-02-16T12:34:42.241Z,22.27
2023-02-16T12:37:15.022Z,22.50
2023-02-16T12:39:47.340Z,23.00
2023-02-16T12:42:26.216Z,20.37
2023-02-16T12:44:55.727Z,21.10
2023-02-16T12:47:30.504Z,21.20
2023-02-16T12:50:01.131Z,21.00
2023-02-16T12:52:35.560Z,21.40
2023-02-16T12:55:11.096Z,22.10
2023-02-16T12:57:43.107Z,22.70
2023-02-16T13:00:17.968Z,23.07
2023-02-16T13:02:51.367Z,22.47
2023-02-16T13:05:21.634Z,21.00
2023-02-16T13:07:51.216Z,20.60
2023-02-16T13:10:21.443Z,20.07
2023-02-16T13:12:51.909Z,24.63
2023-02-16T13:15:21.116Z,20.20
2023-02-16T13:17:51.685Z,22.07
2023-02-16T13:20:20.947Z,20.67
2023-02-16T13:22:57.118Z,20.30
2023-02-16T13:25:40.239Z,20.93
2023-02-16T13:28:16.841Z,20.30
2023-02-16T13:30:58.481Z,19.53
2023-02-16T13:33:42.315Z,20.73
2023-02-16T13:36:25.559Z,19.27
2023-02-16T13:39:05.947Z,20.30
2023-02-16T13:41:41.294Z,20.27
2023-02-16T13:44:12.483Z,20.57
2023-02-16T13:46:41.710Z,25.40
2023-02-16T13:49:28.637Z,23.30
2023-02-16T13:51:56.616Z,20.13
2023-02-16T13:54:27.993Z,20.30
2023-02-16T13:56:56.190Z,20.33
2023-02-16T13:59:57.104Z,21.37
2023-02-16T14:02:58.663Z,23.40
2023-02-16T14:05:29.650Z,24.00
2023-02-16T14:08:10.859Z,19.80
2023-02-16T14:10:57.264Z,21.90
2023-02-16T14:13:28.409Z,18.60
2023-02-16T14:16:00.090Z,18.53
2023-02-16T14:18:32.878Z,19.13
2023-02-16T14:21:02.965Z,21.67
2023-02-16T14:23:34.555Z,18.70
2023-02-16T14:26:03.480Z,20.50
2023-02-16T14:28:50.424Z,20.33
2023-02-16T14:31:22.835Z,23.97
2023-02-16T14:33:56.326Z,19.63
2023-02-16T14:36:27.044Z,20.80
2023-02-16T14:38:58.618Z,21.23
2023-02-16T14:41:27.810Z,17.80
2023-02-16T14:44:13.160Z,21.03
2023-02-16T14:46:47.651Z,19.50
2023-02-16T14:49:26.136Z,18.73
2023-02-16T14:52:20.945Z,18.87
2023-02-16T14:57:44.221Z,16.37
2023-02-16T15:00:14.567Z,23.20
2023-02-16T15:02:43.155Z,18.23
2023-02-16T15:05:18.663Z,21.07
2023-02-16T15:07:50.335Z,19.13
2023-02-16T15:10:21.888Z,18.30
2023-02-16T15:12:51.177Z,20.43
2023-02-16T15:15:20.567Z,19.17
2023-02-16T15:17:49.193Z,18.13
2023-02-16T15:20:21.916Z,19.50
2023-02-16T15:22:50.576Z,19.80
2023-02-16T15:25:22.641Z,16.70
2023-02-16T15:27:59.061Z,17.50
2023-02-16T15:30:28.505Z,16.93
2023-02-16T15:32:58.128Z,16.00
2023-02-16T15:35:29.320Z,17.40
2023-02-16T15:38:01.336Z,16.50
2023-02-16T15:40:33.051Z,17.37
2023-02-16T15:43:06.758Z,16.67
2023-02-16T15:45:38.016Z,17.17
2023-02-16T15:48:15.922Z,17.77
2023-02-16T15:50:44.473Z,15.60
2023-02-16T15:53:13.222Z,16.30
2023-02-16T15:55:45.093Z,16.27
2023-02-16T15:58:14.933Z,16.33
2023-02-16T16:00:45.308Z,16.63
2023-02-16T16:03:15.888Z,16.33
2023-02-16T16:05:59.359Z,16.73
2023-02-16T16:08:29.481Z,16.93
2023-02-16T16:10:57.574Z,18.80
2023-02-16T16:13:28.733Z,16.40
2023-02-16T16:16:01.647Z,16.90
2023-02-16T16:18:53.824Z,17.60
2023-02-16T16:21:24.062Z,16.20
2023-02-16T16:24:09.836Z,17.00
2023-02-16T16:26:52.952Z,17.03
2023-02-16T16:29:32.967Z,16.80
2023-02-16T16:32:01.317Z,15.70
2023-02-16T16:34:34.158Z,15.97
2023-02-16T16:37:03.794Z,16.23
2023-02-16T16:39:32.186Z,15.10
2023-02-16T16:42:24.938Z,16.87
2023-02-16T16:44:58.700Z,16.17
2023-02-16T16:47:27.998Z,17.33
2023-02-16T16:49:56.965Z,16.60
2023-02-16T16:52:36.261Z,17.27
2023-02-16T16:55:19.763Z,17.70
2023-02-16T16:57:50.285Z,17.33
2023-02-16T17:00:19.846Z,18.10
2023-02-16T17:02:48.972Z,18.13
2023-02-16T17:05:17.154Z,18.17
2023-02-16T17:07:49.047Z,18.53
2023-02-16T17:10:17.960Z,17.23
2023-02-16T17:12:46.034Z,17.47
2023-02-16T17:15:26.470Z,18.97
2023-02-16T17:17:54.174Z,23.70
2023-02-16T17:20:22.228Z,20.37
2023-02-16T17:22:50.682Z,20.13
2023-02-16T17:25:18.435Z,18.60
2023-02-16T17:27:46.232Z,20.30
2023-02-16T17:30:14.580Z,19.40
2023-02-16T17:32:43.687Z,18.57
2023-02-16T17:35:11.607Z,19.47
2023-02-16T17:37:39.587Z,20.30
2023-02-16T17:40:11.878Z,20.67
2023-02-16T17:42:39.950Z,20.03
2023-02-16T17:45:07.838Z,21.33
2023-02-16T17:47:35.674Z,20.83
2023-02-16T17:50:05.197Z,20.20
2023-02-16T17:52:33.004Z,21.90
2023-02-16T17:55:00.814Z,23.93
2023-02-16T17:57:29.628Z,22.13
2023-02-16T17:59:57.735Z,24.50
2023-02-16T18:02:25.434Z,20.70
2023-02-16T18:04:54.212Z,23.20
2023-02-16T18:07:23.732Z,21.83
2023-02-16T18:09:51.632Z,43.67
2023-02-16T18:12:19.608Z,22.90
2023-02-16T18:14:47.333Z,21.87
2023-02-16T18:17:15.149Z,30.03
2023-02-16T18:19:43.128Z,22.73
2023-02-16T18:22:10.932Z,22.37
2023-02-16T18:24:39.959Z,23.40
2023-02-16T18:27:08.084Z,25.07
2023-02-16T18:29:35.696Z,26.17
2023-02-16T18:32:04.363Z,21.20
2023-02-16T18:34:33.546Z,21.60
2023-02-16T18:37:01.405Z,29.27
2023-02-16T18:39:29.045Z,21.60
2023-02-16T18:41:58.740Z,21.37
2023-02-16T18:44:26.481Z,22.07
2023-02-16T18:46:54.477Z,23.13
2023-02-16T18:49:22.170Z,20.73
2023-02-16T18:51:49.954Z,23.70
2023-02-16T18:54:17.991Z,22.77
2023-02-16T18:56:47.529Z,20.60
2023-02-16T18:59:16.603Z,21.33
2023-02-16T19:01:45.192Z,21.20
2023-02-16T19:04:13.075Z,20.93
2023-02-16T19:07:02.723Z,21.40
2023-02-16T19:09:30.424Z,22.10
2023-02-16T19:11:58.081Z,21.00
2023-02-16T19:14:27.683Z,20.60
2023-02-16T19:16:55.450Z,20.40
2023-02-16T19:19:23.487Z,21.20
2023-02-16T19:21:51.329Z,20.60
2023-02-16T19:24:19.221Z,20.53
2023-02-16T19:26:46.908Z,21.80
2023-02-16T19:29:14.939Z,21.30
2023-02-16T19:31:44.223Z,22.70
2023-02-16T19:34:12.372Z,22.90
2023-02-16T19:36:40.816Z,20.47
2023-02-16T19:39:08.775Z,23.43
2023-02-16T19:41:37.898Z,21.37
2023-02-16T19:44:06.118Z,20.67
2023-02-16T19:46:34.446Z,20.57
2023-02-16T19:49:03.541Z,19.90
2023-02-16T19:51:31.372Z,20.70
2023-02-16T19:53:59.500Z,20.67
2023-02-16T19:56:28.059Z,20.97
2023-02-16T19:58:57.365Z,22.07
2023-02-16T20:01:27.023Z,21.10
2023-02-16T20:03:55.353Z,20.20
2023-02-16T20:06:25.558Z,21.17
2023-02-16T20:08:53.978Z,20.40
2023-02-16T20:11:22.981Z,21.20
2023-02-16T20:13:50.975Z,23.20
2023-02-16T20:16:19.233Z,21.97
2023-02-16T20:18:47.272Z,21.80
2023-02-16T20:21:15.716Z,22.40
2023-02-16T20:23:44.847Z,22.23
2023-02-16T20:26:14.930Z,20.93
2023-02-16T20:28:43.500Z,21.20
2023-02-16T20:31:12.151Z,21.00
2023-02-16T20:33:40.156Z,20.33
2023-02-16T20:36:07.884Z,20.77
2023-02-16T20:38:35.762Z,21.53
2023-02-16T20:41:05.125Z,20.77
2023-02-16T20:43:33.305Z,21.50
2023-02-16T20:46:01.789Z,22.30
2023-02-16T20:48:29.748Z,23.20
2023-02-16T20:50:58.524Z,23.87
2023-02-16T20:53:26.610Z,24.67
2023-02-16T20:56:01.346Z,26.63
2023-02-16T20:58:30.475Z,25.70
2023-02-16T21:00:59.288Z,28.37
2023-02-16T21:03:27.629Z,27.10
2023-02-16T21:05:55.838Z,28.30
2023-02-16T21:08:23.765Z,26.10
2023-02-16T21:10:51.956Z,27.60
2023-02-16T21:13:19.709Z,32.80
2023-02-16T21:15:48.713Z,27.23
2023-02-16T21:18:16.959Z,30.03
2023-02-16T21:20:45.000Z,29.40
2023-02-16T21:23:13.813Z,30.37
2023-02-16T21:25:41.894Z,32.70
2023-02-16T21:28:09.707Z,28.70
2023-02-16T21:30:37.374Z,31.00
2023-02-16T21:33:06.852Z,27.70
2023-02-16T21:35:34.793Z,28.50
2023-02-16T21:38:02.648Z,27.40
2023-02-16T21:40:48.162Z,26.97
2023-02-16T21:43:15.860Z,26.30
2023-02-16T21:45:43.689Z,26.77
2023-02-16T21:48:30.934Z,28.10
2023-02-16T21:51:02.013Z,26.20
2023-02-16T21:53:30.489Z,25.23
2023-02-16T21:56:15.755Z,26.23
2023-02-16T21:58:43.832Z,24.60
2023-02-16T22:01:12.505Z,25.00
2023-02-16T22:03:41.617Z,24.90
2023-02-16T22:06:09.731Z,23.60
2023-02-16T22:08:38.593Z,26.67
2023-02-16T22:11:07.458Z,26.13
2023-02-16T22:13:35.236Z,25.87
2023-02-16T22:16:03.619Z,25.60
2023-02-16T22:18:31.478Z,26.03
2023-02-16T22:21:04.351Z,27.20
2023-02-16T22:23:31.997Z,26.27
2023-02-16T22:25:59.779Z,25.20
2023-02-16T22:28:27.788Z,25.27
2023-02-16T22:30:55.462Z,24.87
2023-02-16T22:33:23.313Z,24.80
2023-02-16T22:35:51.368Z,24.80
2023-02-16T22:38:20.366Z,24.57
2023-02-16T22:40:48.730Z,25.60
2023-02-16T22:43:16.350Z,25.43
2023-02-16T22:45:44.418Z,26.10
2023-02-16T22:48:12.437Z,25.90
2023-02-16T22:50:40.131Z,27.37
2023-02-16T22:53:07.774Z,27.40
2023-02-16T22:55:37.093Z,25.97
2023-02-16T22:58:05.025Z,25.97
2023-02-16T23:00:32.737Z,26.53
2023-02-16T23:03:01.026Z,27.67
2023-02-16T23:05:30.444Z,27.30
2023-02-16T23:07:59.981Z,27.57
2023-02-16T23:10:28.242Z,28.20
2023-02-16T23:12:57.232Z,27.90
2023-02-16T23:15:25.166Z,26.90
2023-02-16T23:17:54.696Z,26.83
2023-02-16T23:20:22.786Z,29.80
2023-02-16T23:22:50.457Z,26.60
2023-02-16T23:25:33.815Z,28.47
2023-02-16T23:28:03.957Z,27.23
2023-02-16T23:30:32.929Z,28.13
2023-02-16T23:33:00.587Z,26.20
2023-02-16T23:35:28.301Z,25.80
2023-02-16T23:37:55.981Z,26.63
2023-02-16T23:40:24.364Z,27.77
2023-02-16T23:42:51.981Z,27.43
2023-02-16T23:45:21.142Z,28.70
2023-02-16T23:47:48.950Z,27.20
2023-02-16T23:50:16.839Z,29.30
2023-02-16T23:52:44.504Z,27.90
2023-02-16T23:55:12.755Z,27.93
2023-02-16T23:57:40.512Z,27.10
